sensor_id;sensor_type;location;lat;lon;timestamp;temperature;humidity
32534;DHT22;18973;48.580;8.912;2023-02-15T00:01:05;3.30;99.90
32534;DHT22;18973;48.580;8.912;2023-02-15T00:03:31;3.30;99.90
32534;DHT22;18973;48.580;8.912;2023-02-15T00:05:57;3.30;99.90
32534;DHT22;18973;48.580;8.912;2023-02-15T00:08:23;3.20;99.90
32534;DHT22;18973;48.580;8.912;2023-02-15T00:10:49;3.10;99.90
32534;DHT22;18973;48.580;8.912;2023-02-15T00:13:14;3.00;99.90
32534;DHT22;18973;48.580;8.912;2023-02-15T00:15:40;3.00;99.90
32534;DHT22;18973;48.580;8.912;2023-02-15T00:18:06;3.10;99.90
32534;DHT22;18973;48.580;8.912;2023-02-15T00:20:31;3.10;99.90
32534;DHT22;18973;48.580;8.912;2023-02-15T00:22:58;3.10;99.90
32534;DHT22;18973;48.580;8.912;2023-02-15T00:25:24;3.10;99.90
32534;DHT22;18973;48.580;8.912;2023-02-15T00:27:50;3.10;99.90
32534;DHT22;18973;48.580;8.912;2023-02-15T00:30:15;3.20;99.90
32534;DHT22;18973;48.580;8.912;2023-02-15T00:32:41;3.30;99.90
32534;DHT22;18973;48.580;8.912;2023-02-15T00:35:07;3.20;99.90
32534;DHT22;18973;48.580;8.912;2023-02-15T00:37:33;3.20;99.90
32534;DHT22;18973;48.580;8.912;2023-02-15T00:39:58;3.20;99.90
32534;DHT22;18973;48.580;8.912;2023-02-15T00:42:24;3.00;99.90
32534;DHT22;18973;48.580;8.912;2023-02-15T00:44:49;2.90;99.90
32534;DHT22;18973;48.580;8.912;2023-02-15T00:47:15;3.00;99.90
32534;DHT22;18973;48.580;8.912;2023-02-15T00:49:41;2.90;99.90
32534;DHT22;18973;48.580;8.912;2023-02-15T00:52:06;3.10;99.90
32534;DHT22;18973;48.580;8.912;2023-02-15T00:54:32;3.00;99.90
32534;DHT22;18973;48.580;8.912;2023-02-15T00:57:00;3.00;99.90
32534;DHT22;18973;48.580;8.912;2023-02-15T00:59:25;2.90;99.90
32534;DHT22;18973;48.580;8.912;2023-02-15T01:01:51;3.00;99.90
32534;DHT22;18973;48.580;8.912;2023-02-15T01:04:17;2.90;99.90
32534;DHT22;18973;48.580;8.912;2023-02-15T01:06:42;2.90;99.90
32534;DHT22;18973;48.580;8.912;2023-02-15T01:09:08;2.90;99.90
32534;DHT22;18973;48.580;8.912;2023-02-15T01:11:34;2.80;99.90
32534;DHT22;18973;48.580;8.912;2023-02-15T01:13:59;2.80;99.90
32534;DHT22;18973;48.580;8.912;2023-02-15T01:16:27;2.60;99.90
32534;DHT22;18973;48.580;8.912;2023-02-15T01:18:53;2.60;99.90
32534;DHT22;18973;48.580;8.912;2023-02-15T01:21:22;2.50;99.90
32534;DHT22;18973;48.580;8.912;2023-02-15T01:23:48;2.30;99.90
32534;DHT22;18973;48.580;8.912;2023-02-15T01:26:14;2.50;99.90
32534;DHT22;18973;48.580;8.912;2023-02-15T01:28:40;2.60;99.90
32534;DHT22;18973;48.580;8.912;2023-02-15T01:31:11;2.50;99.90
32534;DHT22;18973;48.580;8.912;2023-02-15T01:33:38;2.40;99.90
32534;DHT22;18973;48.580;8.912;2023-02-15T01:36:04;2.50;99.90
32534;DHT22;18973;48.580;8.912;2023-02-15T01:38:30;2.60;99.90
32534;DHT22;18973;48.580;8.912;2023-02-15T01:40:56;2.70;99.90
32534;DHT22;18973;48.580;8.912;2023-02-15T01:43:46;2.80;99.90
32534;DHT22;18973;48.580;8.912;2023-02-15T01:46:13;2.80;99.90
32534;DHT22;18973;48.580;8.912;2023-02-15T01:48:46;2.90;99.90
32534;DHT22;18973;48.580;8.912;2023-02-15T01:51:14;3.00;99.90
32534;DHT22;18973;48.580;8.912;2023-02-15T01:54:19;2.70;99.90
32534;DHT22;18973;48.580;8.912;2023-02-15T01:56:47;2.60;99.90
32534;DHT22;18973;48.580;8.912;2023-02-15T01:59:18;2.80;99.90
32534;DHT22;18973;48.580;8.912;2023-02-15T02:01:45;2.80;99.90
32534;DHT22;18973;48.580;8.912;2023-02-15T02:06:37;2.70;99.90
32534;DHT22;18973;48.580;8.912;2023-02-15T02:09:04;2.70;99.90
32534;DHT22;18973;48.580;8.912;2023-02-15T02:11:30;2.60;99.90
32534;DHT22;18973;48.580;8.912;2023-02-15T02:13:57;2.50;99.90
32534;DHT22;18973;48.580;8.912;2023-02-15T02:30:06;2.20;99.90
32534;DHT22;18973;48.580;8.912;2023-02-15T02:33:07;2.20;99.90
32534;DHT22;18973;48.580;8.912;2023-02-15T02:36:03;2.00;99.90
32534;DHT22;18973;48.580;8.912;2023-02-15T02:44:18;2.30;99.90
32534;DHT22;18973;48.580;8.912;2023-02-15T02:47:50;2.30;99.90
32534;DHT22;18973;48.580;8.912;2023-02-15T02:49:44;2.20;99.90
32534;DHT22;18973;48.580;8.912;2023-02-15T02:54:57;2.10;99.90
32534;DHT22;18973;48.580;8.912;2023-02-15T02:57:24;2.20;99.90
32534;DHT22;18973;48.580;8.912;2023-02-15T02:59:52;1.70;99.90
32534;DHT22;18973;48.580;8.912;2023-02-15T03:02:24;1.80;99.90
32534;DHT22;18973;48.580;8.912;2023-02-15T03:05:03;1.90;99.90
32534;DHT22;18973;48.580;8.912;2023-02-15T03:07:30;2.00;99.90
32534;DHT22;18973;48.580;8.912;2023-02-15T03:10:00;2.00;99.90
32534;DHT22;18973;48.580;8.912;2023-02-15T03:12:38;1.80;99.90
32534;DHT22;18973;48.580;8.912;2023-02-15T03:15:18;2.00;99.90
32534;DHT22;18973;48.580;8.912;2023-02-15T03:17:49;2.00;99.90
32534;DHT22;18973;48.580;8.912;2023-02-15T03:20:22;1.90;99.90
32534;DHT22;18973;48.580;8.912;2023-02-15T03:22:56;1.80;99.90
32534;DHT22;18973;48.580;8.912;2023-02-15T03:25:32;1.60;99.90
32534;DHT22;18973;48.580;8.912;2023-02-15T03:28:07;1.80;99.90
32534;DHT22;18973;48.580;8.912;2023-02-15T03:30:35;1.90;99.90
32534;DHT22;18973;48.580;8.912;2023-02-15T03:33:03;2.00;99.90
32534;DHT22;18973;48.580;8.912;2023-02-15T03:35:58;1.90;99.90
32534;DHT22;18973;48.580;8.912;2023-02-15T03:38:36;1.80;99.90
32534;DHT22;18973;48.580;8.912;2023-02-15T03:41:03;1.50;99.90
32534;DHT22;18973;48.580;8.912;2023-02-15T03:46:22;1.50;99.90
32534;DHT22;18973;48.580;8.912;2023-02-15T03:49:22;1.30;99.90
32534;DHT22;18973;48.580;8.912;2023-02-15T03:51:51;1.30;99.90
32534;DHT22;18973;48.580;8.912;2023-02-15T03:54:23;1.30;99.90
32534;DHT22;18973;48.580;8.912;2023-02-15T03:57:27;1.20;99.90
32534;DHT22;18973;48.580;8.912;2023-02-15T04:00:18;1.20;99.90
32534;DHT22;18973;48.580;8.912;2023-02-15T04:05:56;1.20;99.90
32534;DHT22;18973;48.580;8.912;2023-02-15T04:08:22;1.10;99.90
32534;DHT22;18973;48.580;8.912;2023-02-15T04:11:07;1.20;99.90
32534;DHT22;18973;48.580;8.912;2023-02-15T04:13:33;1.50;99.90
32534;DHT22;18973;48.580;8.912;2023-02-15T04:15:59;1.40;99.90
32534;DHT22;18973;48.580;8.912;2023-02-15T04:18:34;1.40;99.90
32534;DHT22;18973;48.580;8.912;2023-02-15T04:21:20;1.30;99.90
32534;DHT22;18973;48.580;8.912;2023-02-15T04:24:05;1.10;99.90
32534;DHT22;18973;48.580;8.912;2023-02-15T04:26:50;1.00;99.90
32534;DHT22;18973;48.580;8.912;2023-02-15T04:29:19;1.30;99.90
32534;DHT22;18973;48.580;8.912;2023-02-15T04:31:45;1.40;99.90
32534;DHT22;18973;48.580;8.912;2023-02-15T04:34:10;1.30;99.90
32534;DHT22;18973;48.580;8.912;2023-02-15T04:36:37;1.50;99.90
32534;DHT22;18973;48.580;8.912;2023-02-15T04:39:04;1.50;99.90
32534;DHT22;18973;48.580;8.912;2023-02-15T04:41:29;1.70;99.90
32534;DHT22;18973;48.580;8.912;2023-02-15T04:43:55;1.80;99.90
32534;DHT22;18973;48.580;8.912;2023-02-15T04:46:21;1.80;99.90
32534;DHT22;18973;48.580;8.912;2023-02-15T04:48:47;1.70;99.90
32534;DHT22;18973;48.580;8.912;2023-02-15T04:51:13;1.80;99.90
32534;DHT22;18973;48.580;8.912;2023-02-15T04:53:38;1.80;99.90
32534;DHT22;18973;48.580;8.912;2023-02-15T04:56:04;1.60;99.90
32534;DHT22;18973;48.580;8.912;2023-02-15T04:58:30;1.50;99.90
32534;DHT22;18973;48.580;8.912;2023-02-15T05:00:56;1.30;99.90
32534;DHT22;18973;48.580;8.912;2023-02-15T05:03:22;1.00;99.90
32534;DHT22;18973;48.580;8.912;2023-02-15T05:05:48;0.90;99.90
32534;DHT22;18973;48.580;8.912;2023-02-15T05:08:14;1.10;99.90
32534;DHT22;18973;48.580;8.912;2023-02-15T05:10:39;1.10;99.90
32534;DHT22;18973;48.580;8.912;2023-02-15T05:13:05;1.00;99.90
32534;DHT22;18973;48.580;8.912;2023-02-15T05:15:31;1.00;99.90
32534;DHT22;18973;48.580;8.912;2023-02-15T05:17:56;0.90;99.90
32534;DHT22;18973;48.580;8.912;2023-02-15T05:20:22;0.90;99.90
32534;DHT22;18973;48.580;8.912;2023-02-15T05:22:48;1.00;99.90
32534;DHT22;18973;48.580;8.912;2023-02-15T05:25:13;1.00;99.90
32534;DHT22;18973;48.580;8.912;2023-02-15T05:27:57;0.90;99.90
32534;DHT22;18973;48.580;8.912;2023-02-15T05:30:41;0.80;99.90
32534;DHT22;18973;48.580;8.912;2023-02-15T05:33:08;0.90;99.90
32534;DHT22;18973;48.580;8.912;2023-02-15T05:35:34;1.00;99.90
32534;DHT22;18973;48.580;8.912;2023-02-15T05:38:00;0.90;99.90
32534;DHT22;18973;48.580;8.912;2023-02-15T05:40:26;1.00;99.90
32534;DHT22;18973;48.580;8.912;2023-02-15T05:42:52;1.10;99.90
32534;DHT22;18973;48.580;8.912;2023-02-15T05:45:17;1.20;99.90
32534;DHT22;18973;48.580;8.912;2023-02-15T05:47:43;1.10;99.90
32534;DHT22;18973;48.580;8.912;2023-02-15T05:50:09;1.20;99.90
32534;DHT22;18973;48.580;8.912;2023-02-15T05:52:36;1.30;99.90
32534;DHT22;18973;48.580;8.912;2023-02-15T05:55:03;1.10;99.90
32534;DHT22;18973;48.580;8.912;2023-02-15T05:57:29;1.10;99.90
32534;DHT22;18973;48.580;8.912;2023-02-15T05:59:55;1.00;99.90
32534;DHT22;18973;48.580;8.912;2023-02-15T06:02:21;1.10;99.90
32534;DHT22;18973;48.580;8.912;2023-02-15T06:04:47;1.10;99.90
32534;DHT22;18973;48.580;8.912;2023-02-15T06:07:12;1.10;99.90
32534;DHT22;18973;48.580;8.912;2023-02-15T06:09:38;1.10;99.90
32534;DHT22;18973;48.580;8.912;2023-02-15T06:12:04;1.20;99.90
32534;DHT22;18973;48.580;8.912;2023-02-15T06:14:29;1.30;99.90
32534;DHT22;18973;48.580;8.912;2023-02-15T06:16:55;1.00;99.90
32534;DHT22;18973;48.580;8.912;2023-02-15T06:19:21;1.10;99.90
32534;DHT22;18973;48.580;8.912;2023-02-15T06:21:48;1.00;99.90
32534;DHT22;18973;48.580;8.912;2023-02-15T06:24:14;1.10;99.90
32534;DHT22;18973;48.580;8.912;2023-02-15T06:26:39;1.00;99.90
32534;DHT22;18973;48.580;8.912;2023-02-15T06:29:05;1.00;99.90
32534;DHT22;18973;48.580;8.912;2023-02-15T06:31:31;0.90;99.90
32534;DHT22;18973;48.580;8.912;2023-02-15T06:33:57;0.60;99.90
32534;DHT22;18973;48.580;8.912;2023-02-15T06:36:30;0.60;99.90
32534;DHT22;18973;48.580;8.912;2023-02-15T06:38:56;0.40;99.90
32534;DHT22;18973;48.580;8.912;2023-02-15T06:41:22;0.30;99.90
32534;DHT22;18973;48.580;8.912;2023-02-15T06:43:49;0.30;99.90
32534;DHT22;18973;48.580;8.912;2023-02-15T06:46:14;0.40;99.90
32534;DHT22;18973;48.580;8.912;2023-02-15T06:48:40;0.40;99.90
32534;DHT22;18973;48.580;8.912;2023-02-15T06:51:06;0.40;99.90
32534;DHT22;18973;48.580;8.912;2023-02-15T06:53:32;0.50;99.90
32534;DHT22;18973;48.580;8.912;2023-02-15T06:56:05;0.60;99.90
32534;DHT22;18973;48.580;8.912;2023-02-15T06:58:39;0.60;99.90
32534;DHT22;18973;48.580;8.912;2023-02-15T07:01:05;0.60;99.90
32534;DHT22;18973;48.580;8.912;2023-02-15T07:03:31;0.70;99.90
32534;DHT22;18973;48.580;8.912;2023-02-15T07:05:59;0.70;99.90
32534;DHT22;18973;48.580;8.912;2023-02-15T07:08:26;0.80;99.90
32534;DHT22;18973;48.580;8.912;2023-02-15T07:10:52;0.90;99.90
32534;DHT22;18973;48.580;8.912;2023-02-15T07:13:19;0.90;99.90
32534;DHT22;18973;48.580;8.912;2023-02-15T07:15:49;1.00;99.90
32534;DHT22;18973;48.580;8.912;2023-02-15T07:18:14;1.20;99.90
32534;DHT22;18973;48.580;8.912;2023-02-15T07:20:43;1.10;99.90
32534;DHT22;18973;48.580;8.912;2023-02-15T07:23:09;1.30;99.90
32534;DHT22;18973;48.580;8.912;2023-02-15T07:25:34;1.40;99.90
32534;DHT22;18973;48.580;8.912;2023-02-15T07:28:03;1.30;99.90
32534;DHT22;18973;48.580;8.912;2023-02-15T07:30:29;1.50;99.90
32534;DHT22;18973;48.580;8.912;2023-02-15T07:32:56;1.20;99.90
32534;DHT22;18973;48.580;8.912;2023-02-15T07:35:46;1.00;99.90
32534;DHT22;18973;48.580;8.912;2023-02-15T07:38:11;1.20;99.90
32534;DHT22;18973;48.580;8.912;2023-02-15T07:40:37;1.30;99.90
32534;DHT22;18973;48.580;8.912;2023-02-15T07:43:03;1.40;99.90
32534;DHT22;18973;48.580;8.912;2023-02-15T07:45:29;1.30;99.90
32534;DHT22;18973;48.580;8.912;2023-02-15T07:47:54;1.20;99.90
32534;DHT22;18973;48.580;8.912;2023-02-15T07:50:20;1.10;99.90
32534;DHT22;18973;48.580;8.912;2023-02-15T07:52:46;1.30;99.90
32534;DHT22;18973;48.580;8.912;2023-02-15T07:55:11;1.30;99.90
32534;DHT22;18973;48.580;8.912;2023-02-15T07:57:44;1.60;99.90
32534;DHT22;18973;48.580;8.912;2023-02-15T08:00:12;1.80;99.90
32534;DHT22;18973;48.580;8.912;2023-02-15T08:02:38;1.80;99.90
32534;DHT22;18973;48.580;8.912;2023-02-15T08:05:05;2.20;99.90
32534;DHT22;18973;48.580;8.912;2023-02-15T08:07:31;3.20;99.90
32534;DHT22;18973;48.580;8.912;2023-02-15T08:09:56;4.40;99.90
32534;DHT22;18973;48.580;8.912;2023-02-15T08:12:22;5.80;99.90
32534;DHT22;18973;48.580;8.912;2023-02-15T08:14:48;6.80;99.90
32534;DHT22;18973;48.580;8.912;2023-02-15T08:17:13;7.60;99.90
32534;DHT22;18973;48.580;8.912;2023-02-15T08:19:39;8.30;98.60
32534;DHT22;18973;48.580;8.912;2023-02-15T08:22:06;8.70;96.60
32534;DHT22;18973;48.580;8.912;2023-02-15T08:24:36;8.50;96.20
32534;DHT22;18973;48.580;8.912;2023-02-15T08:27:03;8.60;95.50
32534;DHT22;18973;48.580;8.912;2023-02-15T08:29:30;9.40;94.70
32534;DHT22;18973;48.580;8.912;2023-02-15T08:32:02;9.70;93.40
32534;DHT22;18973;48.580;8.912;2023-02-15T08:34:31;10.20;92.10
32534;DHT22;18973;48.580;8.912;2023-02-15T08:36:57;10.60;91.30
32534;DHT22;18973;48.580;8.912;2023-02-15T08:39:23;10.90;90.30
32534;DHT22;18973;48.580;8.912;2023-02-15T08:41:49;11.10;88.40
32534;DHT22;18973;48.580;8.912;2023-02-15T08:44:19;11.10;83.40
32534;DHT22;18973;48.580;8.912;2023-02-15T08:46:46;11.10;82.40
32534;DHT22;18973;48.580;8.912;2023-02-15T08:49:16;10.90;79.90
32534;DHT22;18973;48.580;8.912;2023-02-15T08:51:46;10.90;81.40
32534;DHT22;18973;48.580;8.912;2023-02-15T08:54:17;10.90;84.10
32534;DHT22;18973;48.580;8.912;2023-02-15T08:56:44;10.60;80.70
32534;DHT22;18973;48.580;8.912;2023-02-15T08:59:27;10.60;78.20
32534;DHT22;18973;48.580;8.912;2023-02-15T09:01:54;10.70;79.30
32534;DHT22;18973;48.580;8.912;2023-02-15T09:04:20;10.80;80.80
32534;DHT22;18973;48.580;8.912;2023-02-15T09:06:48;10.80;85.10
32534;DHT22;18973;48.580;8.912;2023-02-15T09:09:15;10.90;86.00
32534;DHT22;18973;48.580;8.912;2023-02-15T09:11:42;10.80;86.60
32534;DHT22;18973;48.580;8.912;2023-02-15T09:14:11;10.70;81.40
32534;DHT22;18973;48.580;8.912;2023-02-15T09:16:39;10.50;83.80
32534;DHT22;18973;48.580;8.912;2023-02-15T09:19:06;10.30;82.80
32534;DHT22;18973;48.580;8.912;2023-02-15T09:21:33;10.40;80.60
32534;DHT22;18973;48.580;8.912;2023-02-15T09:24:01;10.40;79.20
32534;DHT22;18973;48.580;8.912;2023-02-15T09:26:30;10.40;78.80
32534;DHT22;18973;48.580;8.912;2023-02-15T09:28:58;10.50;78.30
32534;DHT22;18973;48.580;8.912;2023-02-15T09:31:32;10.50;76.50
32534;DHT22;18973;48.580;8.912;2023-02-15T09:33:59;10.40;77.90
32534;DHT22;18973;48.580;8.912;2023-02-15T09:36:32;10.40;77.30
32534;DHT22;18973;48.580;8.912;2023-02-15T10:25:30;11.30;76.70
32534;DHT22;18973;48.580;8.912;2023-02-15T10:28:04;11.40;77.50
32534;DHT22;18973;48.580;8.912;2023-02-15T10:33:19;11.60;78.20
32534;DHT22;18973;48.580;8.912;2023-02-15T10:36:18;11.70;80.50
32534;DHT22;18973;48.580;8.912;2023-02-15T10:59:50;12.50;76.60
32534;DHT22;18973;48.580;8.912;2023-02-15T11:08:06;12.70;72.60
32534;DHT22;18973;48.580;8.912;2023-02-15T11:10:55;13.00;72.70
32534;DHT22;18973;48.580;8.912;2023-02-15T11:13:26;13.00;73.70
32534;DHT22;18973;48.580;8.912;2023-02-15T11:16:05;13.10;74.50
32534;DHT22;18973;48.580;8.912;2023-02-15T11:18:41;13.40;71.00
32534;DHT22;18973;48.580;8.912;2023-02-15T11:21:20;13.50;68.90
32534;DHT22;18973;48.580;8.912;2023-02-15T11:23:48;13.60;68.90
32534;DHT22;18973;48.580;8.912;2023-02-15T11:33:00;13.80;70.00
32534;DHT22;18973;48.580;8.912;2023-02-15T11:37:51;14.10;67.50
32534;DHT22;18973;48.580;8.912;2023-02-15T11:40:47;14.30;66.30
32534;DHT22;18973;48.580;8.912;2023-02-15T11:43:17;14.30;66.60
32534;DHT22;18973;48.580;8.912;2023-02-15T11:45:46;14.30;66.40
32534;DHT22;18973;48.580;8.912;2023-02-15T11:48:14;14.20;66.00
32534;DHT22;18973;48.580;8.912;2023-02-15T11:50:42;14.10;66.30
32534;DHT22;18973;48.580;8.912;2023-02-15T11:53:15;14.20;66.40
32534;DHT22;18973;48.580;8.912;2023-02-15T11:55:46;14.10;67.00
32534;DHT22;18973;48.580;8.912;2023-02-15T12:00:49;14.10;68.60
32534;DHT22;18973;48.580;8.912;2023-02-15T12:06:25;14.20;67.60
32534;DHT22;18973;48.580;8.912;2023-02-15T12:09:12;14.30;69.50
32534;DHT22;18973;48.580;8.912;2023-02-15T12:11:40;14.40;68.00
32534;DHT22;18973;48.580;8.912;2023-02-15T12:14:08;14.40;67.70
32534;DHT22;18973;48.580;8.912;2023-02-15T12:16:53;14.60;67.20
32534;DHT22;18973;48.580;8.912;2023-02-15T12:21:50;14.70;66.70
32534;DHT22;18973;48.580;8.912;2023-02-15T12:24:38;14.80;67.30
32534;DHT22;18973;48.580;8.912;2023-02-15T12:27:17;14.80;66.80
32534;DHT22;18973;48.580;8.912;2023-02-15T12:32:33;14.90;66.10
32534;DHT22;18973;48.580;8.912;2023-02-15T12:35:32;14.90;65.70
32534;DHT22;18973;48.580;8.912;2023-02-15T12:40:40;16.50;84.70
32534;DHT22;18973;48.580;8.912;2023-02-15T12:43:30;16.50;66.90
32534;DHT22;18973;48.580;8.912;2023-02-15T12:46:33;16.60;76.40
32534;DHT22;18973;48.580;8.912;2023-02-15T12:49:18;16.70;66.90
32534;DHT22;18973;48.580;8.912;2023-02-15T12:51:56;16.50;65.70
32534;DHT22;18973;48.580;8.912;2023-02-15T12:56:48;16.50;63.40
32534;DHT22;18973;48.580;8.912;2023-02-15T12:59:14;16.40;62.90
32534;DHT22;18973;48.580;8.912;2023-02-15T13:01:46;16.40;62.60
32534;DHT22;18973;48.580;8.912;2023-02-15T13:04:27;16.40;64.80
32534;DHT22;18973;48.580;8.912;2023-02-15T13:06:59;16.40;63.50
32534;DHT22;18973;48.580;8.912;2023-02-15T13:09:38;16.50;61.50
32534;DHT22;18973;48.580;8.912;2023-02-15T13:12:23;16.50;60.40
32534;DHT22;18973;48.580;8.912;2023-02-15T13:14:54;16.60;60.90
32534;DHT22;18973;48.580;8.912;2023-02-15T13:17:28;16.60;61.20
32534;DHT22;18973;48.580;8.912;2023-02-15T13:20:00;16.70;59.70
32534;DHT22;18973;48.580;8.912;2023-02-15T13:22:41;16.60;59.20
32534;DHT22;18973;48.580;8.912;2023-02-15T13:25:40;16.60;58.00
32534;DHT22;18973;48.580;8.912;2023-02-15T13:28:14;16.50;58.10
32534;DHT22;18973;48.580;8.912;2023-02-15T13:30:44;16.50;58.20
32534;DHT22;18973;48.580;8.912;2023-02-15T13:35:47;16.40;58.00
32534;DHT22;18973;48.580;8.912;2023-02-15T13:41:17;16.40;58.90
32534;DHT22;18973;48.580;8.912;2023-02-15T13:44:03;16.40;59.30
32534;DHT22;18973;48.580;8.912;2023-02-15T13:52:25;16.30;60.70
32534;DHT22;18973;48.580;8.912;2023-02-15T13:58:14;16.40;59.80
32534;DHT22;18973;48.580;8.912;2023-02-15T14:15:13;16.20;62.80
32534;DHT22;18973;48.580;8.912;2023-02-15T14:26:19;16.30;59.90
32534;DHT22;18973;48.580;8.912;2023-02-15T14:31:41;16.20;57.90
32534;DHT22;18973;48.580;8.912;2023-02-15T14:34:20;16.10;57.80
32534;DHT22;18973;48.580;8.912;2023-02-15T14:36:48;16.10;57.40
32534;DHT22;18973;48.580;8.912;2023-02-15T14:42:37;16.00;56.00
32534;DHT22;18973;48.580;8.912;2023-02-15T14:45:27;16.00;55.80
32534;DHT22;18973;48.580;8.912;2023-02-15T14:48:09;16.00;55.80
32534;DHT22;18973;48.580;8.912;2023-02-15T14:50:42;16.00;55.20
32534;DHT22;18973;48.580;8.912;2023-02-15T14:56:19;15.90;55.80
32534;DHT22;18973;48.580;8.912;2023-02-15T15:01:29;15.90;56.60
32534;DHT22;18973;48.580;8.912;2023-02-15T15:03:59;15.90;57.20
32534;DHT22;18973;48.580;8.912;2023-02-15T15:06:31;15.90;57.50
32534;DHT22;18973;48.580;8.912;2023-02-15T15:09:13;15.80;58.50
32534;DHT22;18973;48.580;8.912;2023-02-15T15:11:50;15.80;59.00
32534;DHT22;18973;48.580;8.912;2023-02-15T15:17:01;15.70;59.50
32534;DHT22;18973;48.580;8.912;2023-02-15T15:22:24;15.60;59.50
32534;DHT22;18973;48.580;8.912;2023-02-15T15:24:56;15.50;59.70
32534;DHT22;18973;48.580;8.912;2023-02-15T15:27:45;15.40;59.70
32534;DHT22;18973;48.580;8.912;2023-02-15T15:35:23;15.40;61.20
32534;DHT22;18973;48.580;8.912;2023-02-15T15:49:24;15.30;59.30
32534;DHT22;18973;48.580;8.912;2023-02-15T15:51:52;15.20;58.90
32534;DHT22;18973;48.580;8.912;2023-02-15T15:54:21;15.20;58.60
32534;DHT22;18973;48.580;8.912;2023-02-15T15:56:54;15.20;57.10
32534;DHT22;18973;48.580;8.912;2023-02-15T15:59:30;14.90;57.20
32534;DHT22;18973;48.580;8.912;2023-02-15T16:01:56;14.90;57.40
32534;DHT22;18973;48.580;8.912;2023-02-15T16:04:31;14.80;56.30
32534;DHT22;18973;48.580;8.912;2023-02-15T16:07:13;14.60;57.00
32534;DHT22;18973;48.580;8.912;2023-02-15T16:09:39;14.70;57.40
32534;DHT22;18973;48.580;8.912;2023-02-15T16:12:10;14.70;57.50
32534;DHT22;18973;48.580;8.912;2023-02-15T16:14:40;14.70;57.70
32534;DHT22;18973;48.580;8.912;2023-02-15T16:17:17;14.60;58.10
32534;DHT22;18973;48.580;8.912;2023-02-15T16:19:45;14.40;59.20
32534;DHT22;18973;48.580;8.912;2023-02-15T16:22:20;14.30;58.40
32534;DHT22;18973;48.580;8.912;2023-02-15T16:27:46;14.10;59.10
32534;DHT22;18973;48.580;8.912;2023-02-15T16:30:34;14.00;59.30
32534;DHT22;18973;48.580;8.912;2023-02-15T16:33:11;13.90;58.40
32534;DHT22;18973;48.580;8.912;2023-02-15T16:35:40;13.90;59.80
32534;DHT22;18973;48.580;8.912;2023-02-15T16:38:09;13.80;59.90
32534;DHT22;18973;48.580;8.912;2023-02-15T16:40:43;13.80;59.90
32534;DHT22;18973;48.580;8.912;2023-02-15T16:43:24;13.70;59.90
32534;DHT22;18973;48.580;8.912;2023-02-15T16:46:04;13.70;59.40
32534;DHT22;18973;48.580;8.912;2023-02-15T16:48:32;13.60;59.60
32534;DHT22;18973;48.580;8.912;2023-02-15T16:51:00;13.40;60.40
32534;DHT22;18973;48.580;8.912;2023-02-15T16:53:27;13.20;61.00
32534;DHT22;18973;48.580;8.912;2023-02-15T16:55:57;13.10;61.30
32534;DHT22;18973;48.580;8.912;2023-02-15T16:58:43;13.10;61.80
32534;DHT22;18973;48.580;8.912;2023-02-15T17:01:10;13.00;61.30
32534;DHT22;18973;48.580;8.912;2023-02-15T17:03:36;12.60;62.00
32534;DHT22;18973;48.580;8.912;2023-02-15T17:06:03;12.20;62.90
32534;DHT22;18973;48.580;8.912;2023-02-15T17:08:33;12.10;63.80
32534;DHT22;18973;48.580;8.912;2023-02-15T17:11:19;12.00;63.90
32534;DHT22;18973;48.580;8.912;2023-02-15T17:19:15;11.90;64.60
32534;DHT22;18973;48.580;8.912;2023-02-15T17:21:50;11.60;65.50
32534;DHT22;18973;48.580;8.912;2023-02-15T17:24:22;11.20;66.80
32534;DHT22;18973;48.580;8.912;2023-02-15T17:26:54;11.00;67.30
32534;DHT22;18973;48.580;8.912;2023-02-15T17:29:30;11.00;67.50
32534;DHT22;18973;48.580;8.912;2023-02-15T17:31:58;10.90;67.50
32534;DHT22;18973;48.580;8.912;2023-02-15T17:34:50;11.00;67.30
32534;DHT22;18973;48.580;8.912;2023-02-15T17:39:53;11.00;67.30
32534;DHT22;18973;48.580;8.912;2023-02-15T17:42:19;10.90;68.00
32534;DHT22;18973;48.580;8.912;2023-02-15T17:44:45;10.80;67.90
32534;DHT22;18973;48.580;8.912;2023-02-15T17:47:22;11.00;67.80
32534;DHT22;18973;48.580;8.912;2023-02-15T17:49:50;11.00;67.80
32534;DHT22;18973;48.580;8.912;2023-02-15T17:52:16;11.10;68.10
32534;DHT22;18973;48.580;8.912;2023-02-15T17:54:43;11.00;68.10
32534;DHT22;18973;48.580;8.912;2023-02-15T17:57:29;10.90;68.70
32534;DHT22;18973;48.580;8.912;2023-02-15T17:59:55;10.80;68.80
32534;DHT22;18973;48.580;8.912;2023-02-15T18:02:40;10.80;69.20
32534;DHT22;18973;48.580;8.912;2023-02-15T18:05:24;10.60;69.60
32534;DHT22;18973;48.580;8.912;2023-02-15T18:08:16;10.60;69.90
32534;DHT22;18973;48.580;8.912;2023-02-15T18:11:01;10.50;70.60
32534;DHT22;18973;48.580;8.912;2023-02-15T18:13:46;10.50;70.60
32534;DHT22;18973;48.580;8.912;2023-02-15T18:16:24;10.40;70.70
32534;DHT22;18973;48.580;8.912;2023-02-15T18:18:51;10.40;70.70
32534;DHT22;18973;48.580;8.912;2023-02-15T18:21:17;10.20;70.90
32534;DHT22;18973;48.580;8.912;2023-02-15T18:23:43;10.30;71.20
32534;DHT22;18973;48.580;8.912;2023-02-15T18:26:18;10.30;70.80
32534;DHT22;18973;48.580;8.912;2023-02-15T18:28:44;10.10;71.70
32534;DHT22;18973;48.580;8.912;2023-02-15T18:31:10;10.00;72.80
32534;DHT22;18973;48.580;8.912;2023-02-15T18:33:48;10.00;73.30
32534;DHT22;18973;48.580;8.912;2023-02-15T18:36:43;9.90;73.80
32534;DHT22;18973;48.580;8.912;2023-02-15T18:39:33;9.80;74.00
32534;DHT22;18973;48.580;8.912;2023-02-15T18:42:01;9.90;74.20
32534;DHT22;18973;48.580;8.912;2023-02-15T18:44:27;9.70;74.50
32534;DHT22;18973;48.580;8.912;2023-02-15T18:46:52;9.50;75.30
32534;DHT22;18973;48.580;8.912;2023-02-15T18:49:18;9.30;76.10
32534;DHT22;18973;48.580;8.912;2023-02-15T18:51:44;9.30;76.20
32534;DHT22;18973;48.580;8.912;2023-02-15T18:54:21;9.20;76.40
32534;DHT22;18973;48.580;8.912;2023-02-15T18:57:09;9.10;76.50
32534;DHT22;18973;48.580;8.912;2023-02-15T18:59:37;9.20;76.60
32534;DHT22;18973;48.580;8.912;2023-02-15T19:02:02;9.30;76.50
32534;DHT22;18973;48.580;8.912;2023-02-15T19:04:31;9.30;76.90
32534;DHT22;18973;48.580;8.912;2023-02-15T19:06:57;9.20;77.50
32534;DHT22;18973;48.580;8.912;2023-02-15T19:09:23;9.10;78.10
32534;DHT22;18973;48.580;8.912;2023-02-15T19:11:52;9.00;78.10
32534;DHT22;18973;48.580;8.912;2023-02-15T19:14:30;9.10;78.00
32534;DHT22;18973;48.580;8.912;2023-02-15T19:16:58;9.10;78.00
32534;DHT22;18973;48.580;8.912;2023-02-15T19:19:25;8.90;78.20
32534;DHT22;18973;48.580;8.912;2023-02-15T19:21:51;8.90;78.60
32534;DHT22;18973;48.580;8.912;2023-02-15T19:24:38;8.90;78.50
32534;DHT22;18973;48.580;8.912;2023-02-15T19:29:43;9.00;79.00
32534;DHT22;18973;48.580;8.912;2023-02-15T19:32:10;8.80;79.70
32534;DHT22;18973;48.580;8.912;2023-02-15T19:34:36;8.90;79.30
32534;DHT22;18973;48.580;8.912;2023-02-15T19:37:01;8.80;79.70
32534;DHT22;18973;48.580;8.912;2023-02-15T19:39:37;8.70;80.00
32534;DHT22;18973;48.580;8.912;2023-02-15T19:42:04;8.70;80.60